ADDS METAR Data INFO
IDs: Format: Raw Decoded Include TAF

Data at: 1714 UTC 23 Oct 2017

PALH 231653Z 33006KT 10SM BKN110 M03/M07 A2982 RMK AO2 SLP100 T10281067
PALH 231553Z 03008KT 10SM SCT080 OVC095 M02/M05 A2983 RMK AO2 SLP101 T10171050
PALH 231453Z 02008KT 10SM OVC085 M02/M05 A2983 RMK AO2 SLP102 T10221050 58008
PALH 231353Z 03004KT 10SM BKN070 OVC090 M03/M07 A2985 RMK AO2 SLP107 T10331072
PALH 231253Z 02004KT 10SM FEW120 M04/M07 A2986 RMK AO2 SLP111 T10391067
PALH 231153Z 00000KT 10SM CLR M06/M08 A2986 RMK AO2 SLP111 I6000 T10611078 11033 21072 51013
PALH 231053Z 00000KT 10SM CLR M07/M09 A2985 RMK AO2 SLP109 T10721094
PALH 230953Z 00000KT 10SM CLR M04/M09 A2984 RMK AO2 SLP103 T10441089
PALH 230853Z 00000KT 10SM CLR M06/M09 A2982 RMK AO2 SLP098 I3000 T10561089 400221061 53020
PALH 230753Z 00000KT 10SM CLR M04/M08 A2980 RMK AO2 SLP090 T10391083
PALH 230653Z 00000KT 10SM CLR M04/M06 A2978 RMK AO2 SLP084 I1000 T10441056
PALH 230553Z 00000KT 10SM CLR M04/M05 A2976 RMK AO2 SLP079 T10441050 10017 21044 52028
PALH 230453Z 00000KT 10SM CLR M03/M05 A2973 RMK AO2 SLP070 T10281050
PALH 230353Z 14005KT 10SM BKN050 M02/M04 A2970 RMK AO2 SLP060 T10221039
PALH 230253Z 22003KT 10SM FEW055 M01/M04 A2968 RMK AO2 SLP050 T10061039 53024
PALH 230153Z 00000KT 10SM BKN070 01/M04 A2965 RMK AO2 SLP040 T00111044
PALH 230053Z 05003KT 10SM SCT075 00/M05 A2963 RMK AO2 SLP032 T00001050
PALH 222353Z 00000KT 10SM SCT050 02/M06 A2961 RMK AO2 SLP026 T00171056 10022 21044 51023
PALH 222253Z 00000KT 10SM CLR 01/M06 A2959 RMK AO2 SLP019 T00111061
PALH 222153Z 00000KT 10SM CLR 01/M06 A2957 RMK AO2 SLP013 T00061061
PALH 222053Z 00000KT 10SM CLR 01/M06 A2954 RMK AO2 SLP003 T00111061 53028
PALH 221953Z 04004KT 10SM CLR M01/M06 A2951 RMK AO2 SLP993 T10061061
PALH 221853Z 16004KT 10SM CLR M03/M07 A2948 RMK AO2 SLP985 T10331067
PALH 221753Z 09004KT 10SM SCT043 M04/M07 A2946 RMK AO2 SLP976 60000 T10391067 11033 21050 51023
PALH 221653Z 12004KT 10SM OVC045 M04/M07 A2944 RMK AO2 SLP969 T10441067
PALH 221635Z 11005KT 10SM FEW020 OVC045 M04/M06 A2943 RMK AO2 T10391061
PALH 221553Z 11003KT 10SM OVC021 M03/M06 A2941 RMK AO2 SNB26E46 SLP961 P0000 T10331056
PALH 221453Z 00000KT 10SM OVC023 M04/M06 A2939 RMK AO2 SLP953 60000 T10391056 53021
PALH 221353Z 00000KT 10SM OVC024 M03/M05 A2937 RMK AO2 SLP946 T10331050
PALH 221342Z 17003KT 10SM BKN026 OVC050 M03/M05 A2936 RMK AO2 T10331050
PALH 221314Z 18003KT 10SM SCT026 OVC050 M03/M05 A2935 RMK AO2 T10331050
PALH 221253Z 18003KT 10SM OVC026 M03/M05 A2934 RMK AO2 SNB27E42 SLP936 P0000 T10331050
PALH 221153Z 14003KT 10SM SCT014 OVC025 M03/M04 A2933 RMK AO2 SNE11 SLP932 P0000 60000 T10331044 11033 21044 51008
PALH 221150Z 13003KT 10SM SCT013 OVC023 M03/M04 A2932 RMK AO2 SNE11 P0000
PALH 221108Z 00000KT 3SM -SN BR BKN012 OVC021 M04/M04 A2932 RMK AO2 P0000 T10391044
PALH 221053Z 15003KT 2 1/2SM -SN BR OVC021 M04/M04 A2932 RMK AO2 SNE24B31 SLP929 P0000 T10391044
PALH 221027Z 18003KT 6SM BR BKN022 BKN031 OVC070 M04/M05 A2931 RMK AO2 SNE24 P0000 T10391050
PALH 220953Z 17003KT 3SM -SN BR FEW024 OVC035 M04/M05 A2930 RMK AO2 SNB0856 SLP923 P0000 T10391050
PALH 220943Z 00000KT 1 3/4SM -SN BR OVC031 M04/M05 A2930 RMK AO2 SNB0856 P0000 T10391050
PALH 220933Z 19004KT 4SM -SN BR OVC031 M04/M05 A2930 RMK AO2 SNB0856 P0000 T10391050
PALH 220919Z 19003KT 2SM -SN BR OVC025 M04/M05 A2929 RMK AO2 SNB0856 P0000 T10391050
PALH 220908Z 00000KT 1 1/2SM -SN BR OVC026 M04/M05 A2929 RMK AO2 SNB0856 P0000 T10391050
PALH 220900Z 17003KT 2 1/2SM -SN BR FEW018 OVC026 M04/M06 A2929 RMK AO2 SNB0856 P0000 T10391056
PALH 220853Z 00000KT 10SM FEW018 BKN036 OVC090 M04/M06 A2929 RMK AO2 SNB18E43 SLP918 P0000 60000 T10391056 410221056 51006
PALH 220849Z 18003KT 10SM FEW018 BKN041 OVC090 M04/M06 A2928 RMK AO2 SNB18E43 P0000
PALH 220753Z 19003KT 10SM OVC017 M04/M06 A2928 RMK AO2 SLP918 T10391056
PALH 220653Z 00000KT 10SM OVC026 M04/M06 A2927 RMK AO2 SLP912 T10391056
PALH 220637Z 00000KT 10SM BKN027 BKN037 OVC095 M04/M06 A2927 RMK AO2 T10441056
PALH 220553Z 18003KT 10SM SCT014 OVC037 M04/M06 A2926 RMK AO2 SLP909 60000 T10441056 11022 21044 51003
PALH 220540Z 00000KT 10SM BKN014 OVC037 M04/M06 A2926 RMK AO2 T10441056